createdAt,value
2016-05-21T00:00:13.467Z,1009.61
2016-05-21T00:01:13.438Z,1009.6
2016-05-21T00:02:13.425Z,1009.57
2016-05-21T00:03:13.397Z,1009.57
2016-05-21T00:04:13.383Z,1009.58
2016-05-21T00:05:13.730Z,1009.58
2016-05-21T00:06:13.341Z,1009.57
2016-05-21T00:07:13.314Z,1009.56
2016-05-21T00:08:13.300Z,1009.56
2016-05-21T00:09:13.272Z,1009.52
2016-05-21T00:10:13.258Z,1009.55
2016-05-21T00:11:13.258Z,1009.54
2016-05-21T00:12:13.230Z,1009.53
2016-05-21T00:13:13.232Z,1009.52
2016-05-21T00:14:13.219Z,1009.53
2016-05-21T00:15:13.222Z,1009.51
2016-05-21T00:16:13.671Z,1009.53
2016-05-21T00:17:13.226Z,1009.5
2016-05-21T00:18:13.172Z,1009.5
2016-05-21T00:19:13.180Z,1009.48
2016-05-21T00:20:13.126Z,1009.47
2016-05-21T00:21:13.132Z,1009.43
2016-05-21T00:22:13.200Z,1009.44
2016-05-21T00:23:13.079Z,1009.45
2016-05-21T00:24:13.070Z,1009.44
2016-05-21T00:25:13.058Z,1009.43
2016-05-21T00:26:13.031Z,1009.45
2016-05-21T00:27:13.019Z,1009.43
2016-05-21T00:28:12.975Z,1009.42
2016-05-21T00:29:12.963Z,1009.44
2016-05-21T00:30:12.934Z,1009.41
2016-05-21T00:31:12.923Z,1009.4
2016-05-21T00:32:12.910Z,1009.42
2016-05-21T00:33:12.865Z,1009.4
2016-05-21T00:34:12.837Z,1009.36
2016-05-21T00:35:12.809Z,1009.41
2016-05-21T00:36:12.811Z,1009.36
2016-05-21T00:37:12.783Z,1009.37
2016-05-21T00:38:12.786Z,1009.36
2016-05-21T00:39:12.788Z,1009.35
2016-05-21T00:40:12.728Z,1009.33
2016-05-21T00:41:12.715Z,1009.35
2016-05-21T00:42:12.671Z,1009.34
2016-05-21T00:43:12.658Z,1009.36
2016-05-21T00:44:12.644Z,1009.36
2016-05-21T00:45:12.633Z,1009.33
2016-05-21T00:46:12.604Z,1009.32
2016-05-21T00:47:12.575Z,1009.34
2016-05-21T00:48:12.547Z,1009.31
2016-05-21T00:49:12.533Z,1009.25
2016-05-21T00:50:12.521Z,1009.31
2016-05-21T00:51:12.492Z,1009.31
2016-05-21T00:52:12.463Z,1009.3
2016-05-21T00:53:12.419Z,1009.32
2016-05-21T00:54:12.421Z,1009.27
2016-05-21T00:55:12.409Z,1009.3
2016-05-21T00:56:12.380Z,1009.25
2016-05-21T00:57:12.351Z,1009.24
2016-05-21T00:58:12.323Z,1009.24
2016-05-21T00:59:12.310Z,1009.22
2016-05-21T01:00:12.298Z,1009.22
2016-05-21T01:01:12.285Z,1009.22
2016-05-21T01:02:12.256Z,1009.25
2016-05-21T01:03:12.228Z,1009.25
2016-05-21T01:04:12.199Z,1009.24
2016-05-21T01:05:12.186Z,1009.24
2016-05-21T01:06:12.157Z,1009.19
2016-05-21T01:07:12.129Z,1009.19
2016-05-21T01:08:12.131Z,1009.21
2016-05-21T01:09:12.119Z,1009.19
2016-05-21T01:10:12.074Z,1009.21
2016-05-21T01:11:12.030Z,1009.22
2016-05-21T01:12:12.017Z,1009.19
2016-05-21T01:13:12.004Z,1009.23
2016-05-21T01:14:11.992Z,1009.22
2016-05-21T01:15:11.963Z,1009.21
2016-05-21T01:16:11.919Z,1009.24
2016-05-21T01:17:11.906Z,1009.21
2016-05-21T01:18:11.893Z,1009.19
2016-05-21T01:19:11.880Z,1009.17
2016-05-21T01:20:11.852Z,1009.18
2016-05-21T01:21:11.822Z,1009.18
2016-05-21T01:22:11.810Z,1009.2
2016-05-21T01:23:11.828Z,1009.18
2016-05-21T01:24:11.768Z,1009.22
2016-05-21T01:25:11.740Z,1009.23
2016-05-21T01:26:11.726Z,1009.19
2016-05-21T01:27:11.682Z,1009.19
2016-05-21T01:28:11.670Z,1009.21
2016-05-21T01:29:11.673Z,1009.23
2016-05-21T01:30:11.644Z,1009.21
2016-05-21T01:31:11.615Z,1009.22
2016-05-21T01:32:11.602Z,1009.22
2016-05-21T01:33:11.574Z,1009.2
2016-05-21T01:34:11.561Z,1009.14
2016-05-21T01:35:11.532Z,1009.11
2016-05-21T01:36:11.520Z,1009.16
2016-05-21T01:37:11.490Z,1009.14
2016-05-21T01:38:11.447Z,1009.13
2016-05-21T01:39:11.450Z,1009.16
2016-05-21T01:40:11.405Z,1009.14
2016-05-21T01:41:11.439Z,1009.11
2016-05-21T01:42:11.364Z,1009.15
2016-05-21T01:43:11.367Z,1009.15
2016-05-21T01:44:11.323Z,1009.15
2016-05-21T01:45:11.434Z,1009.16
2016-05-21T01:46:11.281Z,1009.17
2016-05-21T01:47:11.517Z,1009.19
2016-05-21T01:48:11.770Z,1009.25
2016-05-21T01:49:11.211Z,1009.25
2016-05-21T01:50:11.197Z,1009.22
2016-05-21T01:51:11.169Z,1009.24
2016-05-21T01:52:11.155Z,1009.23
2016-05-21T01:53:11.143Z,1009.23
2016-05-21T01:54:11.115Z,1009.23
2016-05-21T01:55:11.696Z,1009.24
2016-05-21T01:56:11.074Z,1009.24
2016-05-21T01:57:11.044Z,1009.23
2016-05-21T01:58:11.016Z,1009.21
2016-05-21T01:59:11.472Z,1009.18
2016-05-21T02:00:10.990Z,1009.16
2016-05-21T02:01:10.962Z,1009.19
2016-05-21T02:02:10.932Z,1009.2
2016-05-21T02:03:10.920Z,1009.19
2016-05-21T02:04:10.873Z,1009.18
2016-05-21T02:05:11.097Z,1009.16
2016-05-21T02:06:10.831Z,1009.16
2016-05-21T02:07:11.337Z,1009.17
2016-05-21T02:08:10.900Z,1009.18
2016-05-21T02:09:10.948Z,1009.15
2016-05-21T02:10:10.748Z,1009.14
2016-05-21T02:11:10.720Z,1009.16
2016-05-21T02:12:10.801Z,1009.11
2016-05-21T02:13:10.695Z,1009.13
2016-05-21T02:14:10.822Z,1009.15
2016-05-21T02:15:10.872Z,1009.12
2016-05-21T02:16:10.828Z,1009.13
2016-05-21T02:17:10.611Z,1009.13
2016-05-21T02:18:10.583Z,1009.12
2016-05-21T02:19:10.850Z,1009.1
2016-05-21T02:20:10.619Z,1009.1
2016-05-21T02:21:10.544Z,1009.11
2016-05-21T02:22:10.500Z,1009.12
2016-05-21T02:23:11.096Z,1009.13
2016-05-21T02:24:10.802Z,1009.09
2016-05-21T02:25:10.711Z,1009.12
2016-05-21T02:26:10.402Z,1009.13
2016-05-21T02:27:10.372Z,1009.12
2016-05-21T02:28:10.359Z,1009.13
2016-05-21T02:29:10.363Z,1009.14
2016-05-21T02:30:10.318Z,1009.14
2016-05-21T02:31:10.290Z,1009.11
2016-05-21T02:32:10.761Z,1009.15
2016-05-21T02:33:10.248Z,1009.09
2016-05-21T02:34:10.220Z,1009.08
2016-05-21T02:35:10.222Z,1009.09
2016-05-21T02:36:10.585Z,1009.05
2016-05-21T02:37:10.773Z,1009.06
2016-05-21T02:38:10.137Z,1009.03
2016-05-21T02:39:10.109Z,1009.02
2016-05-21T02:40:10.298Z,1008.99
2016-05-21T02:41:10.410Z,1009.05
2016-05-21T02:42:10.053Z,1009.02
2016-05-21T02:43:10.040Z,1009.04
2016-05-21T02:44:10.543Z,1009.05
2016-05-21T02:45:09.983Z,1009.06
2016-05-21T02:46:09.955Z,1009.1
2016-05-21T02:47:09.941Z,1009.03
2016-05-21T02:48:09.913Z,1009.05
2016-05-21T02:49:09.885Z,1009.07
2016-05-21T02:50:09.934Z,1009.04
2016-05-21T02:51:09.984Z,1009.04
2016-05-21T02:52:09.861Z,1009.07
2016-05-21T02:53:09.802Z,1009.09
2016-05-21T02:54:09.805Z,1009.09
2016-05-21T02:55:09.791Z,1009.08
2016-05-21T02:56:09.747Z,1009.11
2016-05-21T02:57:09.719Z,1009.11
2016-05-21T02:58:09.721Z,1009.07
2016-05-21T02:59:09.677Z,1009.1
2016-05-21T03:00:09.649Z,1009.1
2016-05-21T03:01:09.730Z,1009.04
2016-05-21T03:02:09.607Z,1009.06
2016-05-21T03:03:10.109Z,1009.01
2016-05-21T03:04:09.566Z,1009.04
2016-05-21T03:05:09.553Z,1009.03
2016-05-21T03:06:09.524Z,1009
2016-05-21T03:07:09.511Z,1009
2016-05-21T03:08:09.482Z,1008.98
2016-05-21T03:09:09.454Z,1009
2016-05-21T03:10:09.442Z,1008.96
2016-05-21T03:11:09.397Z,1008.93
2016-05-21T03:12:09.400Z,1008.9
2016-05-21T03:13:09.371Z,1008.91
2016-05-21T03:14:09.327Z,1008.88
2016-05-21T03:15:09.314Z,1008.9
2016-05-21T03:16:09.551Z,1008.95
2016-05-21T03:17:09.272Z,1008.91
2016-05-21T03:18:09.259Z,1008.96
2016-05-21T03:19:09.231Z,1008.91
2016-05-21T03:20:09.202Z,1008.88
2016-05-21T03:21:09.190Z,1008.94
2016-05-21T03:22:09.364Z,1008.95
2016-05-21T03:23:09.133Z,1008.93
2016-05-21T03:24:09.105Z,1008.94
2016-05-21T03:25:09.107Z,1008.93
2016-05-21T03:26:09.063Z,1008.91
2016-05-21T03:27:09.065Z,1008.93
2016-05-21T03:28:09.194Z,1008.95
2016-05-21T03:29:09.008Z,1008.96
2016-05-21T03:30:08.995Z,1008.91
2016-05-21T03:31:08.982Z,1008.95
2016-05-21T03:32:08.954Z,1008.94
2016-05-21T03:33:08.924Z,1008.93
2016-05-21T03:34:08.943Z,1008.98
2016-05-21T03:35:09.180Z,1008.99
2016-05-21T03:36:08.871Z,1008.99
2016-05-21T03:37:08.826Z,1009.04
2016-05-21T03:38:08.860Z,1009.04
2016-05-21T03:39:08.785Z,1009.05
2016-05-21T03:40:08.772Z,1009.07
2016-05-21T03:41:08.931Z,1009.09
2016-05-21T03:42:08.715Z,1009.08
2016-05-21T03:43:08.701Z,1009.14
2016-05-21T03:44:08.689Z,1009.07
2016-05-21T03:45:08.676Z,1009.03
2016-05-21T03:46:08.647Z,1009.06
2016-05-21T03:47:08.603Z,1009.05
2016-05-21T03:48:08.606Z,1009.06
2016-05-21T03:49:08.562Z,1009.07
2016-05-21T03:50:08.814Z,1009.02
2016-05-21T03:51:08.520Z,1009.05
2016-05-21T03:52:08.492Z,1009.01
2016-05-21T03:53:08.478Z,1009.05
2016-05-21T03:54:08.450Z,1009.05
2016-05-21T03:55:08.438Z,1009.03
2016-05-21T03:56:08.502Z,1009.03
2016-05-21T03:57:08.396Z,1009.01
2016-05-21T03:58:08.367Z,1008.99
2016-05-21T03:59:08.324Z,1008.96
2016-05-21T04:00:08.326Z,1008.98
2016-05-21T04:01:08.610Z,1009.01
2016-05-21T04:02:08.284Z,1008.99
2016-05-21T04:03:08.287Z,1009.01
2016-05-21T04:04:08.243Z,1009.02
2016-05-21T04:05:08.215Z,1009.01
2016-05-21T04:06:08.232Z,1008.94
2016-05-21T04:07:08.173Z,1008.98
2016-05-21T04:08:08.144Z,1008.96
2016-05-21T04:09:08.131Z,1008.94
2016-05-21T04:10:08.118Z,1008.92
2016-05-21T04:11:08.277Z,1008.94
2016-05-21T04:12:08.061Z,1008.93
2016-05-21T04:13:08.048Z,1008.94
2016-05-21T04:14:08.051Z,1008.93
2016-05-21T04:15:08.007Z,1008.9
2016-05-21T04:16:07.979Z,1008.92
2016-05-21T04:17:07.950Z,1008.91
2016-05-21T04:18:07.937Z,1008.88
2016-05-21T04:19:07.908Z,1008.89
2016-05-21T04:20:07.895Z,1008.93
2016-05-21T04:21:07.851Z,1008.94
2016-05-21T04:22:07.839Z,1008.92
2016-05-21T04:23:07.825Z,1008.94
2016-05-21T04:24:07.781Z,1008.95
2016-05-21T04:25:07.783Z,1008.95
2016-05-21T04:26:07.772Z,1009.01
2016-05-21T04:27:07.726Z,1009.02
2016-05-21T04:28:07.713Z,1009.01
2016-05-21T04:29:07.669Z,1009.02
2016-05-21T04:30:07.688Z,1009.05
2016-05-21T04:31:07.660Z,1009.01
2016-05-21T04:32:07.615Z,1009
2016-05-21T04:33:07.618Z,1009.01
2016-05-21T04:34:07.588Z,1009
2016-05-21T04:35:07.545Z,1009.01
2016-05-21T04:36:07.548Z,1009.02
2016-05-21T04:37:07.503Z,1009.03
2016-05-21T04:38:07.475Z,1008.97
2016-05-21T04:39:07.462Z,1008.97
2016-05-21T04:40:07.434Z,1008.93
2016-05-21T04:41:07.421Z,1008.91
2016-05-21T04:42:07.423Z,1008.86
2016-05-21T04:43:07.379Z,1008.85
2016-05-21T04:44:07.350Z,1008.86
2016-05-21T04:45:07.322Z,1008.85
2016-05-21T04:46:07.309Z,1008.81
2016-05-21T04:47:07.281Z,1008.83
2016-05-21T04:48:07.251Z,1008.77
2016-05-21T04:49:07.270Z,1008.77
2016-05-21T04:50:07.211Z,1008.74
2016-05-21T04:51:07.245Z,1008.73
2016-05-21T04:52:07.184Z,1008.75
2016-05-21T04:53:07.156Z,1008.75
2016-05-21T04:54:07.127Z,1008.72
2016-05-21T04:55:07.114Z,1008.73
2016-05-21T04:56:07.086Z,1008.73
2016-05-21T04:57:07.073Z,1008.64
2016-05-21T04:58:07.075Z,1008.68
2016-05-21T04:59:07.030Z,1008.63
2016-05-21T05:00:07.003Z,1008.61
2016-05-21T05:01:06.974Z,1008.61
2016-05-21T05:02:06.946Z,1008.61
2016-05-21T05:03:06.948Z,1008.62
2016-05-21T05:04:06.919Z,1008.62
2016-05-21T05:05:06.891Z,1008.64
2016-05-21T05:06:06.863Z,1008.65
2016-05-21T05:07:06.834Z,1008.68
2016-05-21T05:08:06.852Z,1008.65
2016-05-21T05:09:06.792Z,1008.66
2016-05-21T05:10:06.780Z,1008.66
2016-05-21T05:11:06.767Z,1008.65
2016-05-21T05:12:06.738Z,1008.68
2016-05-21T05:13:06.726Z,1008.69
2016-05-21T05:14:06.696Z,1008.7
2016-05-21T05:15:06.668Z,1008.63
2016-05-21T05:16:06.671Z,1008.67
2016-05-21T05:17:06.612Z,1008.65
2016-05-21T05:18:06.598Z,1008.63
2016-05-21T05:19:06.585Z,1008.63
2016-05-21T05:20:06.728Z,1008.59
2016-05-21T05:21:06.653Z,1008.6
2016-05-21T05:22:06.937Z,1008.65
2016-05-21T05:23:06.549Z,1008.61
2016-05-21T05:24:06.473Z,1008.62
2016-05-21T05:25:06.461Z,1008.61
2016-05-21T05:26:06.416Z,1008.6
2016-05-21T05:27:06.403Z,1008.57
2016-05-21T05:28:06.375Z,1008.61
2016-05-21T05:29:06.377Z,1008.59
2016-05-21T05:30:06.350Z,1008.58
2016-05-21T05:31:06.305Z,1008.6
2016-05-21T05:32:06.307Z,1008.64
2016-05-21T05:33:06.419Z,1008.61
2016-05-21T05:34:06.297Z,1008.6
2016-05-21T05:35:06.253Z,1008.57
2016-05-21T05:36:06.209Z,1008.6
2016-05-21T05:37:06.181Z,1008.6
2016-05-21T05:38:06.214Z,1008.63
2016-05-21T05:39:06.154Z,1008.6
2016-05-21T05:40:06.141Z,1008.58
2016-05-21T05:41:06.551Z,1008.59
2016-05-21T05:42:06.084Z,1008.6
2016-05-21T05:43:06.056Z,1008.6
2016-05-21T05:44:06.043Z,1008.58
2016-05-21T05:45:06.015Z,1008.61
2016-05-21T05:46:05.986Z,1008.58
2016-05-21T05:47:06.082Z,1008.62
2016-05-21T05:48:05.959Z,1008.61
2016-05-21T05:49:05.915Z,1008.57
2016-05-21T05:50:05.903Z,1008.6
2016-05-21T05:51:05.906Z,1008.59
2016-05-21T05:52:05.877Z,1008.58
2016-05-21T05:53:05.833Z,1008.61
2016-05-21T05:54:05.820Z,1008.62
2016-05-21T05:55:05.791Z,1008.58
2016-05-21T05:56:05.794Z,1008.61
2016-05-21T05:57:05.734Z,1008.6
2016-05-21T05:58:05.722Z,1008.62
2016-05-21T05:59:05.708Z,1008.59
2016-05-21T06:00:05.711Z,1008.55
2016-05-21T06:01:05.666Z,1008.56
2016-05-21T06:02:05.638Z,1008.6
2016-05-21T06:03:05.625Z,1008.56
2016-05-21T06:04:05.597Z,1008.59
2016-05-21T06:05:05.584Z,1008.58
2016-05-21T06:06:05.555Z,1008.59
2016-05-21T06:07:05.543Z,1008.57
2016-05-21T06:08:05.513Z,1008.58
2016-05-21T06:09:05.485Z,1008.57
2016-05-21T06:10:05.472Z,1008.54
2016-05-21T06:11:05.460Z,1008.58
2016-05-21T06:12:05.446Z,1008.56
2016-05-21T06:13:05.418Z,1008.56
2016-05-21T06:14:05.437Z,1008.55
2016-05-21T06:15:05.345Z,1008.54
2016-05-21T06:16:05.332Z,1008.54
2016-05-21T06:17:05.663Z,1008.54
2016-05-21T06:18:05.290Z,1008.54
2016-05-21T06:19:05.278Z,1008.58
2016-05-21T06:20:05.421Z,1008.6
2016-05-21T06:21:05.220Z,1008.64
2016-05-21T06:22:05.520Z,1008.67
2016-05-21T06:23:05.211Z,1008.64
2016-05-21T06:24:05.167Z,1008.65
2016-05-21T06:25:05.169Z,1008.61
2016-05-21T06:26:05.406Z,1008.61
2016-05-21T06:27:05.128Z,1008.61
2016-05-21T06:28:05.224Z,1008.65
2016-05-21T06:29:05.070Z,1008.63
2016-05-21T06:30:05.058Z,1008.6
2016-05-21T06:31:05.028Z,1008.62
2016-05-21T06:32:05.031Z,1008.62
2016-05-21T06:33:04.971Z,1008.62
2016-05-21T06:34:05.005Z,1008.61
2016-05-21T06:35:04.946Z,1008.58
2016-05-21T06:36:04.933Z,1008.59
2016-05-21T06:37:04.889Z,1008.6
2016-05-21T06:38:04.876Z,1008.57
2016-05-21T06:39:04.863Z,1008.62
2016-05-21T06:40:04.835Z,1008.62
2016-05-21T06:41:05.260Z,1008.6
2016-05-21T06:42:04.807Z,1008.62
2016-05-21T06:43:04.765Z,1008.66
2016-05-21T06:44:04.735Z,1008.63
2016-05-21T06:45:04.738Z,1008.64
2016-05-21T06:46:04.772Z,1008.62
2016-05-21T06:47:04.696Z,1008.58
2016-05-21T06:48:04.668Z,1008.6
2016-05-21T06:49:04.624Z,1008.56
2016-05-21T06:50:04.612Z,1008.58
2016-05-21T06:51:04.582Z,1008.55
2016-05-21T06:52:04.570Z,1008.58
2016-05-21T06:53:04.556Z,1008.61
2016-05-21T06:54:04.528Z,1008.64
2016-05-21T06:55:04.500Z,1008.63
2016-05-21T06:56:04.471Z,1008.63
2016-05-21T06:57:04.458Z,1008.61
2016-05-21T06:58:04.445Z,1008.6
2016-05-21T06:59:04.433Z,1008.64
2016-05-21T07:00:04.450Z,1008.62
2016-05-21T07:01:04.391Z,1008.67
2016-05-21T07:02:04.456Z,1008.7
2016-05-21T07:03:04.349Z,1008.71
2016-05-21T07:04:04.352Z,1008.7
2016-05-21T07:05:04.339Z,1008.68
2016-05-21T07:06:04.295Z,1008.7
2016-05-21T07:07:04.329Z,1008.66
2016-05-21T07:08:04.285Z,1008.7
2016-05-21T07:09:04.225Z,1008.72
2016-05-21T07:10:04.352Z,1008.71
2016-05-21T07:11:04.167Z,1008.68
2016-05-21T07:12:04.155Z,1008.7
2016-05-21T07:13:04.266Z,1008.71
2016-05-21T07:14:04.410Z,1008.73
2016-05-21T07:15:04.101Z,1008.7
2016-05-21T07:16:04.071Z,1008.68
2016-05-21T07:17:04.090Z,1008.64
2016-05-21T07:18:04.030Z,1008.59
2016-05-21T07:19:04.049Z,1008.59
2016-05-21T07:20:03.989Z,1008.6
2016-05-21T07:21:03.992Z,1008.6
2016-05-21T07:22:03.948Z,1008.59
2016-05-21T07:23:03.918Z,1008.64
2016-05-21T07:24:03.906Z,1008.66
2016-05-21T07:25:04.033Z,1008.68
2016-05-21T07:26:03.881Z,1008.64
2016-05-21T07:27:03.836Z,1008.67
2016-05-21T07:28:04.010Z,1008.68
2016-05-21T07:29:03.795Z,1008.64
2016-05-21T07:30:03.781Z,1008.67
2016-05-21T07:31:03.753Z,1008.63
2016-05-21T07:32:03.818Z,1008.61
2016-05-21T07:33:03.727Z,1008.59
2016-05-21T07:34:03.698Z,1008.61
2016-05-21T07:35:03.700Z,1008.63
2016-05-21T07:36:03.844Z,1008.6
2016-05-21T07:37:03.644Z,1008.64
2016-05-21T07:38:03.724Z,1008.65
2016-05-21T07:39:03.915Z,1008.68
2016-05-21T07:40:03.621Z,1008.65
2016-05-21T07:41:04.030Z,1008.66
2016-05-21T07:42:03.751Z,1008.66
2016-05-21T07:43:03.613Z,1008.66
2016-05-21T07:44:03.491Z,1008.64
2016-05-21T07:45:03.602Z,1008.65
2016-05-21T07:46:03.449Z,1008.64
2016-05-21T07:47:03.437Z,1008.65
2016-05-21T07:48:03.471Z,1008.61
2016-05-21T07:49:03.395Z,1008.61
2016-05-21T07:50:03.663Z,1008.61
2016-05-21T07:51:03.385Z,1008.66
2016-05-21T07:52:03.309Z,1008.64
2016-05-21T07:53:03.311Z,1008.62
2016-05-21T07:54:03.299Z,1008.57
2016-05-21T07:55:03.270Z,1008.57
2016-05-21T07:56:03.257Z,1008.5
2016-05-21T07:57:03.229Z,1008.51
2016-05-21T07:58:03.200Z,1008.53
2016-05-21T07:59:03.187Z,1008.51
2016-05-21T08:00:03.175Z,1008.52
2016-05-21T08:01:03.162Z,1008.56
2016-05-21T08:02:03.289Z,1008.53
2016-05-21T08:03:03.105Z,1008.58
2016-05-21T08:04:03.075Z,1008.53
2016-05-21T08:05:03.078Z,1008.57
2016-05-21T08:06:03.034Z,1008.6
2016-05-21T08:07:03.131Z,1008.62
2016-05-21T08:08:03.196Z,1008.64
2016-05-21T08:09:02.996Z,1008.64
2016-05-21T08:10:02.967Z,1008.65
2016-05-21T08:11:03.344Z,1008.62
2016-05-21T08:12:02.925Z,1008.61
2016-05-21T08:13:02.913Z,1008.63
2016-05-21T08:14:02.915Z,1008.62
2016-05-21T08:15:02.856Z,1008.64
2016-05-21T08:16:02.857Z,1008.64
2016-05-21T08:17:02.846Z,1008.64
2016-05-21T08:18:02.926Z,1008.69
2016-05-21T08:19:02.788Z,1008.67
2016-05-21T08:20:02.760Z,1008.63
2016-05-21T08:21:02.762Z,1008.59
2016-05-21T08:22:02.734Z,1008.58
2016-05-21T08:23:02.690Z,1008.59
2016-05-21T08:24:03.051Z,1008.61
2016-05-21T08:25:02.664Z,1008.6
2016-05-21T08:26:02.932Z,1008.61
2016-05-21T08:27:02.606Z,1008.57
2016-05-21T08:28:02.765Z,1008.6
2016-05-21T08:29:02.581Z,1008.56
2016-05-21T08:30:02.553Z,1008.6
2016-05-21T08:31:03.039Z,1008.57
2016-05-21T08:32:02.667Z,1008.57
2016-05-21T08:33:02.513Z,1008.54
2016-05-21T08:34:02.484Z,1008.58
2016-05-21T08:35:02.456Z,1008.52
2016-05-21T08:36:02.428Z,1008.52
2016-05-21T08:37:02.431Z,1008.6
2016-05-21T08:38:02.402Z,1008.55
2016-05-21T08:39:02.405Z,1008.58
2016-05-21T08:40:02.375Z,1008.53
2016-05-21T08:41:02.363Z,1008.53
2016-05-21T08:42:02.335Z,1008.55
2016-05-21T08:43:02.305Z,1008.55
2016-05-21T08:44:02.277Z,1008.52
2016-05-21T08:45:02.249Z,1008.5
2016-05-21T08:46:02.251Z,1008.5
2016-05-21T08:47:02.238Z,1008.52
2016-05-21T08:48:02.194Z,1008.49
2016-05-21T08:49:02.666Z,1008.43
2016-05-21T08:50:02.168Z,1008.46
2016-05-21T08:51:02.155Z,1008.49
2016-05-21T08:52:02.111Z,1008.45
2016-05-21T08:53:02.098Z,1008.45
2016-05-21T08:54:02.070Z,1008.47
2016-05-21T08:55:02.057Z,1008.43
2016-05-21T08:56:02.278Z,1008.49
2016-05-21T08:57:02.031Z,1008.49
2016-05-21T08:58:02.018Z,1008.42
2016-05-21T08:59:01.990Z,1008.44
2016-05-21T09:00:01.945Z,1008.42
2016-05-21T09:01:01.948Z,1008.44
2016-05-21T09:02:02.325Z,1008.46
2016-05-21T09:03:01.892Z,1008.48
2016-05-21T09:04:01.878Z,1008.48
2016-05-21T09:05:01.864Z,1008.5
2016-05-21T09:06:01.868Z,1008.49
2016-05-21T09:07:01.823Z,1008.51
2016-05-21T09:08:01.811Z,1008.52
2016-05-21T09:09:01.908Z,1008.54
2016-05-21T09:10:01.786Z,1008.53
2016-05-21T09:11:01.756Z,1008.51
2016-05-21T09:12:01.728Z,1008.51
2016-05-21T09:13:01.699Z,1008.48
2016-05-21T09:14:01.671Z,1008.48
2016-05-21T09:15:01.674Z,1008.51
2016-05-21T09:16:01.644Z,1008.45
2016-05-21T09:17:01.616Z,1008.41
2016-05-21T09:18:01.625Z,1008.43
2016-05-21T09:19:01.634Z,1008.4
2016-05-21T09:20:01.985Z,1008.37
2016-05-21T09:21:01.634Z,1008.38
2016-05-21T09:22:01.642Z,1008.35
2016-05-21T09:23:01.636Z,1008.39
2016-05-21T09:24:01.600Z,1008.34
2016-05-21T09:25:01.626Z,1008.35
2016-05-21T09:26:01.590Z,1008.32
2016-05-21T09:27:01.584Z,1008.31
2016-05-21T09:28:01.573Z,1008.32
2016-05-21T09:29:01.531Z,1008.31
2016-05-21T09:30:01.522Z,1008.3
2016-05-21T09:31:01.511Z,1008.31
2016-05-21T09:32:01.470Z,1008.32
2016-05-21T09:33:01.490Z,1008.29
2016-05-21T09:34:01.446Z,1008.33
2016-05-21T09:35:01.451Z,1008.34
2016-05-21T09:36:01.423Z,1008.34
2016-05-21T09:37:01.411Z,1008.32
2016-05-21T09:38:01.383Z,1008.31
2016-05-21T09:39:01.371Z,1008.3
2016-05-21T09:40:01.358Z,1008.23
2016-05-21T09:41:01.314Z,1008.23
2016-05-21T09:42:01.349Z,1008.2
2016-05-21T09:43:01.274Z,1008.21
2016-05-21T09:44:04.276Z,1008.2
2016-05-21T09:45:01.247Z,1008.17
2016-05-21T09:46:01.218Z,1008.18
2016-05-21T09:47:01.221Z,1008.16
2016-05-21T09:48:01.193Z,1008.19
2016-05-21T09:49:01.165Z,1008.15
2016-05-21T09:50:01.166Z,1008.14
2016-05-21T09:51:01.139Z,1008.1
2016-05-21T09:52:01.125Z,1008.1
2016-05-21T09:53:01.144Z,1008.09
2016-05-21T09:54:01.083Z,1008.08
2016-05-21T09:55:01.071Z,1008.04
2016-05-21T09:56:01.386Z,1008
2016-05-21T09:57:01.013Z,1008.02
2016-05-21T09:58:00.985Z,1007.99
2016-05-21T09:59:00.972Z,1008
2016-05-21T10:00:01.147Z,1008.03
2016-05-21T10:01:00.962Z,1008.03
2016-05-21T10:02:00.902Z,1008.03
2016-05-21T10:03:00.889Z,1008.02
2016-05-21T10:04:00.892Z,1008.01
2016-05-21T10:05:00.879Z,1008.02
2016-05-21T10:06:00.851Z,1008.04
2016-05-21T10:07:00.822Z,1008.08
2016-05-21T10:08:00.824Z,1008.05
2016-05-21T10:09:00.796Z,1008.07
2016-05-21T10:10:00.783Z,1008.02
2016-05-21T10:11:01.020Z,1008.02
2016-05-21T10:12:00.726Z,1008.01
2016-05-21T10:13:00.745Z,1007.98
2016-05-21T10:14:00.684Z,1007.94
2016-05-21T10:15:00.671Z,1007.94
2016-05-21T10:16:00.845Z,1007.97
2016-05-21T10:17:00.631Z,1007.93
2016-05-21T10:18:00.633Z,1007.99
2016-05-21T10:19:01.103Z,1007.92
2016-05-21T10:20:00.684Z,1007.94
2016-05-21T10:21:00.579Z,1007.86
2016-05-21T10:22:00.612Z,1007.91
2016-05-21T10:23:00.568Z,1007.86
2016-05-21T10:24:00.634Z,1007.88
2016-05-21T10:25:00.464Z,1007.91
2016-05-21T10:26:00.466Z,1007.84
2016-05-21T10:27:00.828Z,1007.87
2016-05-21T10:28:00.425Z,1007.85
2016-05-21T10:29:00.413Z,1007.85
2016-05-21T10:30:00.399Z,1007.84
2016-05-21T10:31:00.433Z,1007.81
2016-05-21T10:32:00.358Z,1007.78
2016-05-21T10:33:00.330Z,1007.77
2016-05-21T10:34:00.301Z,1007.82
2016-05-21T10:35:00.288Z,1007.81
2016-05-21T10:36:00.291Z,1007.79
2016-05-21T10:37:00.247Z,1007.78
2016-05-21T10:38:00.233Z,1007.89
2016-05-21T10:39:00.221Z,1007.89
2016-05-21T10:40:00.255Z,1007.85
2016-05-21T10:41:00.210Z,1007.85
2016-05-21T10:42:00.228Z,1007.87
2016-05-21T10:43:00.153Z,1007.88
2016-05-21T10:44:00.265Z,1007.82
2016-05-21T10:45:00.112Z,1007.76
2016-05-21T10:46:00.114Z,1007.75
2016-05-21T10:47:00.117Z,1007.67
2016-05-21T10:48:00.042Z,1007.64
2016-05-21T10:49:00.045Z,1007.59
2016-05-21T10:50:00.031Z,1007.59
2016-05-21T10:51:00.065Z,1007.63
2016-05-21T10:51:59.975Z,1007.68
2016-05-21T10:53:00.024Z,1007.69
2016-05-21T10:53:59.948Z,1007.73
2016-05-21T10:54:59.920Z,1007.72
2016-05-21T10:55:59.892Z,1007.73
2016-05-21T10:56:59.895Z,1007.73
2016-05-21T10:57:59.865Z,1007.72
2016-05-21T10:58:59.822Z,1007.69
2016-05-21T10:59:59.824Z,1007.71
2016-05-21T11:00:59.827Z,1007.67
2016-05-21T11:02:00.110Z,1007.62
2016-05-21T11:02:59.755Z,1007.6
2016-05-21T11:03:59.757Z,1007.63
2016-05-21T11:04:59.727Z,1007.6
2016-05-21T11:05:59.715Z,1007.61
2016-05-21T11:06:59.702Z,1007.6
2016-05-21T11:07:59.721Z,1007.59
2016-05-21T11:08:59.785Z,1007.57
2016-05-21T11:09:59.679Z,1007.54
2016-05-21T11:10:59.635Z,1007.58
2016-05-21T11:11:59.607Z,1007.56
2016-05-21T11:12:59.562Z,1007.54
2016-05-21T11:13:59.565Z,1007.58
2016-05-21T11:14:59.552Z,1007.55
2016-05-21T11:15:59.570Z,1007.54
2016-05-21T11:16:59.510Z,1007.46
2016-05-21T11:17:59.482Z,1007.49
2016-05-21T11:18:59.453Z,1007.47
2016-05-21T11:20:02.503Z,1007.54
2016-05-21T11:23:38.654Z,1007.41
2016-05-21T11:24:38.641Z,1007.45
2016-05-21T11:25:38.566Z,1007.46
2016-05-21T11:26:38.552Z,1007.44
2016-05-21T11:27:38.603Z,1007.42
2016-05-21T11:31:13.454Z,1007.45
2016-05-21T11:32:13.410Z,1007.44
2016-05-21T11:33:13.569Z,1007.42
2016-05-21T11:34:13.369Z,1007.45
2016-05-21T11:35:13.371Z,1007.46
2016-05-21T11:36:13.343Z,1007.44
2016-05-21T11:37:13.314Z,1007.45
2016-05-21T11:38:13.317Z,1007.42
2016-05-21T11:39:13.288Z,1007.39
2016-05-21T11:40:13.244Z,1007.37
2016-05-21T11:41:13.246Z,1007.42
2016-05-21T11:42:13.218Z,1007.41
2016-05-21T11:43:13.220Z,1007.43
2016-05-21T11:44:13.193Z,1007.37
2016-05-21T11:45:13.179Z,1007.36
2016-05-21T11:46:13.166Z,1007.33
2016-05-21T11:47:13.154Z,1007.3
2016-05-21T11:48:13.110Z,1007.3
2016-05-21T11:49:13.112Z,1007.35
2016-05-21T11:50:13.068Z,1007.37
2016-05-21T11:51:13.070Z,1007.38
2016-05-21T11:52:13.042Z,1007.35
2016-05-21T11:53:13.014Z,1007.36
2016-05-21T11:54:13.016Z,1007.41
2016-05-21T11:55:12.987Z,1007.38
2016-05-21T11:56:12.959Z,1007.28
2016-05-21T11:57:12.978Z,1007.3
2016-05-21T11:58:12.948Z,1007.31
2016-05-21T11:59:12.905Z,1007.31
2016-05-21T12:00:12.891Z,1007.31
2016-05-21T12:01:12.878Z,1007.33
2016-05-21T12:02:12.865Z,1007.33
2016-05-21T12:03:12.884Z,1007.33
2016-05-21T12:04:12.825Z,1007.33
2016-05-21T12:05:12.796Z,1007.27
2016-05-21T12:06:12.813Z,1007.31
2016-05-21T12:07:12.785Z,1007.28
2016-05-21T12:08:12.772Z,1007.26
2016-05-21T12:09:12.744Z,1007.25
2016-05-21T12:10:12.731Z,1007.32
2016-05-21T12:11:12.687Z,1007.26
2016-05-21T12:12:12.705Z,1007.27
2016-05-21T12:13:12.692Z,1007.25